Vesta, Minnesota
Current Conditions -  °F | °C
As of 11:53 PM on Saturday 25 Oct 2014 (Local Time) from KRWF Reporting Station
Clear Clear  
Wind Chill: 41°   Ceiling: Unl
Heat Index: 41°   Visibility: 10mi
Dew Point: 30°   Wind: 3mph
Humidity: 65%   Direction: 200°SSW
Pressure: 30.05"   Gusts: NA
Location:  44.51°N, 95.42°W
Report Text: KRWF 260453Z AUTO 20003KT 10SM CLR 05/M01 A3005 RMK AO2 SLP179 T00501011
Loading
Personal Weather Stations






























Interactive Weather Map
Tropical Storm Tracking
New forecast layout! Learn more

10-Day Weather Forecast

Advertisements
Track Severe Weather on mobile